sensor_id;sensor_type;location;lat;lon;timestamp;P1;durP1;ratioP1;P2;durP2;ratioP2
7485;SDS011;3784;54.098;9.998;2023-02-03T00:02:18;6.23;;;5.30;;
7485;SDS011;3784;54.098;9.998;2023-02-03T00:04:44;7.17;;;5.60;;
7485;SDS011;3784;54.098;9.998;2023-02-03T00:07:11;7.47;;;5.90;;
7485;SDS011;3784;54.098;9.998;2023-02-03T00:09:38;6.20;;;5.40;;
7485;SDS011;3784;54.098;9.998;2023-02-03T00:12:05;6.40;;;5.53;;
7485;SDS011;3784;54.098;9.998;2023-02-03T00:14:32;6.30;;;5.20;;
7485;SDS011;3784;54.098;9.998;2023-02-03T00:16:59;8.47;;;5.83;;
7485;SDS011;3784;54.098;9.998;2023-02-03T00:19:25;11.27;;;6.00;;
7485;SDS011;3784;54.098;9.998;2023-02-03T00:21:52;7.57;;;5.50;;
7485;SDS011;3784;54.098;9.998;2023-02-03T00:24:18;8.57;;;6.23;;
7485;SDS011;3784;54.098;9.998;2023-02-03T00:26:45;6.57;;;5.20;;
7485;SDS011;3784;54.098;9.998;2023-02-03T00:29:12;8.60;;;7.00;;
7485;SDS011;3784;54.098;9.998;2023-02-03T00:31:39;10.07;;;6.53;;
7485;SDS011;3784;54.098;9.998;2023-02-03T00:34:06;10.63;;;7.30;;
7485;SDS011;3784;54.098;9.998;2023-02-03T00:36:33;9.37;;;7.13;;
7485;SDS011;3784;54.098;9.998;2023-02-03T00:38:59;13.17;;;9.27;;
7485;SDS011;3784;54.098;9.998;2023-02-03T00:41:27;14.00;;;9.13;;
7485;SDS011;3784;54.098;9.998;2023-02-03T00:43:54;16.70;;;10.30;;
7485;SDS011;3784;54.098;9.998;2023-02-03T00:46:21;19.17;;;9.87;;
7485;SDS011;3784;54.098;9.998;2023-02-03T00:48:47;16.93;;;10.13;;
7485;SDS011;3784;54.098;9.998;2023-02-03T00:51:14;22.20;;;11.37;;
7485;SDS011;3784;54.098;9.998;2023-02-03T00:53:40;26.63;;;11.07;;
7485;SDS011;3784;54.098;9.998;2023-02-03T00:56:07;22.47;;;9.73;;
7485;SDS011;3784;54.098;9.998;2023-02-03T00:58:41;24.60;;;9.83;;
7485;SDS011;3784;54.098;9.998;2023-02-03T01:01:07;18.13;;;7.40;;
7485;SDS011;3784;54.098;9.998;2023-02-03T01:03:34;29.67;;;8.50;;
7485;SDS011;3784;54.098;9.998;2023-02-03T01:08:40;19.50;;;5.43;;
7485;SDS011;3784;54.098;9.998;2023-02-03T01:11:08;29.93;;;6.93;;
7485;SDS011;3784;54.098;9.998;2023-02-03T01:13:35;19.93;;;5.57;;
7485;SDS011;3784;54.098;9.998;2023-02-03T01:16:05;21.27;;;5.40;;
7485;SDS011;3784;54.098;9.998;2023-02-03T01:18:32;24.80;;;6.00;;
7485;SDS011;3784;54.098;9.998;2023-02-03T01:21:03;26.43;;;5.80;;
7485;SDS011;3784;54.098;9.998;2023-02-03T01:23:31;26.63;;;6.50;;
7485;SDS011;3784;54.098;9.998;2023-02-03T01:26:01;25.13;;;5.17;;
7485;SDS011;3784;54.098;9.998;2023-02-03T01:28:31;23.00;;;5.90;;
7485;SDS011;3784;54.098;9.998;2023-02-03T01:31:12;24.27;;;5.27;;
7485;SDS011;3784;54.098;9.998;2023-02-03T01:33:44;23.77;;;5.33;;
7485;SDS011;3784;54.098;9.998;2023-02-03T01:36:14;21.80;;;5.47;;
7485;SDS011;3784;54.098;9.998;2023-02-03T01:38:41;15.67;;;3.53;;
7485;SDS011;3784;54.098;9.998;2023-02-03T01:41:11;23.40;;;4.43;;
7485;SDS011;3784;54.098;9.998;2023-02-03T01:43:40;24.37;;;5.23;;
7485;SDS011;3784;54.098;9.998;2023-02-03T01:51:59;26.07;;;4.90;;
7485;SDS011;3784;54.098;9.998;2023-02-03T01:54:26;21.90;;;5.27;;
7485;SDS011;3784;54.098;9.998;2023-02-03T01:56:58;25.63;;;5.63;;
7485;SDS011;3784;54.098;9.998;2023-02-03T01:59:26;24.53;;;5.47;;
7485;SDS011;3784;54.098;9.998;2023-02-03T02:01:55;20.47;;;4.33;;
7485;SDS011;3784;54.098;9.998;2023-02-03T02:04:24;22.83;;;5.40;;
7485;SDS011;3784;54.098;9.998;2023-02-03T02:06:57;22.50;;;6.07;;
7485;SDS011;3784;54.098;9.998;2023-02-03T02:09:24;28.43;;;6.50;;
7485;SDS011;3784;54.098;9.998;2023-02-03T02:11:51;19.80;;;4.33;;
7485;SDS011;3784;54.098;9.998;2023-02-03T02:14:17;12.43;;;3.67;;
7485;SDS011;3784;54.098;9.998;2023-02-03T02:38:22;17.90;;;3.70;;
7485;SDS011;3784;54.098;9.998;2023-02-03T02:41:15;15.13;;;5.00;;
7485;SDS011;3784;54.098;9.998;2023-02-03T02:43:50;13.53;;;3.90;;
7485;SDS011;3784;54.098;9.998;2023-02-03T02:49:00;22.23;;;4.30;;
7485;SDS011;3784;54.098;9.998;2023-02-03T02:51:30;15.40;;;4.27;;
7485;SDS011;3784;54.098;9.998;2023-02-03T02:54:01;19.00;;;4.40;;
7485;SDS011;3784;54.098;9.998;2023-02-03T02:56:29;18.73;;;4.27;;
7485;SDS011;3784;54.098;9.998;2023-02-03T02:58:57;17.00;;;4.60;;
7485;SDS011;3784;54.098;9.998;2023-02-03T03:01:25;18.50;;;4.37;;
7485;SDS011;3784;54.098;9.998;2023-02-03T03:03:51;9.17;;;3.03;;
7485;SDS011;3784;54.098;9.998;2023-02-03T03:06:23;19.93;;;4.93;;
7485;SDS011;3784;54.098;9.998;2023-02-03T03:08:59;22.37;;;4.23;;
7485;SDS011;3784;54.098;9.998;2023-02-03T03:11:30;21.50;;;4.30;;
7485;SDS011;3784;54.098;9.998;2023-02-03T03:13:58;21.80;;;4.53;;
7485;SDS011;3784;54.098;9.998;2023-02-03T03:16:25;20.33;;;4.23;;
7485;SDS011;3784;54.098;9.998;2023-02-03T03:19:09;16.47;;;4.30;;
7485;SDS011;3784;54.098;9.998;2023-02-03T03:21:39;20.87;;;4.27;;
7485;SDS011;3784;54.098;9.998;2023-02-03T03:24:09;20.17;;;4.47;;
7485;SDS011;3784;54.098;9.998;2023-02-03T03:26:42;22.00;;;5.00;;
7485;SDS011;3784;54.098;9.998;2023-02-03T03:32:00;27.27;;;4.83;;
7485;SDS011;3784;54.098;9.998;2023-02-03T03:34:27;19.60;;;4.90;;
7485;SDS011;3784;54.098;9.998;2023-02-03T03:37:02;23.23;;;5.13;;
7485;SDS011;3784;54.098;9.998;2023-02-03T03:50:37;12.50;;;3.60;;
7485;SDS011;3784;54.098;9.998;2023-02-03T03:53:07;19.43;;;4.17;;
7485;SDS011;3784;54.098;9.998;2023-02-03T03:55:35;16.70;;;4.33;;
7485;SDS011;3784;54.098;9.998;2023-02-03T03:58:03;18.57;;;4.00;;
7485;SDS011;3784;54.098;9.998;2023-02-03T04:00:31;17.13;;;3.67;;
7485;SDS011;3784;54.098;9.998;2023-02-03T04:03:01;18.57;;;4.20;;
7485;SDS011;3784;54.098;9.998;2023-02-03T04:05:32;15.80;;;4.77;;
7485;SDS011;3784;54.098;9.998;2023-02-03T04:07:58;20.30;;;4.63;;
7485;SDS011;3784;54.098;9.998;2023-02-03T04:10:28;14.73;;;3.80;;
7485;SDS011;3784;54.098;9.998;2023-02-03T04:12:57;16.73;;;3.70;;
7485;SDS011;3784;54.098;9.998;2023-02-03T04:15:24;21.03;;;4.10;;
7485;SDS011;3784;54.098;9.998;2023-02-03T04:17:51;15.10;;;3.40;;
7485;SDS011;3784;54.098;9.998;2023-02-03T04:20:18;18.70;;;4.10;;
7485;SDS011;3784;54.098;9.998;2023-02-03T04:22:44;18.67;;;4.10;;
7485;SDS011;3784;54.098;9.998;2023-02-03T04:25:11;12.40;;;3.20;;
7485;SDS011;3784;54.098;9.998;2023-02-03T04:27:37;15.43;;;4.00;;
7485;SDS011;3784;54.098;9.998;2023-02-03T04:30:04;15.97;;;4.10;;
7485;SDS011;3784;54.098;9.998;2023-02-03T04:32:31;16.63;;;4.53;;
7485;SDS011;3784;54.098;9.998;2023-02-03T04:34:57;17.27;;;3.90;;
7485;SDS011;3784;54.098;9.998;2023-02-03T04:37:24;17.73;;;3.93;;
7485;SDS011;3784;54.098;9.998;2023-02-03T04:39:52;16.90;;;3.67;;
7485;SDS011;3784;54.098;9.998;2023-02-03T04:42:20;20.40;;;4.27;;
7485;SDS011;3784;54.098;9.998;2023-02-03T04:44:47;19.97;;;4.67;;
7485;SDS011;3784;54.098;9.998;2023-02-03T04:47:14;18.00;;;4.07;;
7485;SDS011;3784;54.098;9.998;2023-02-03T04:49:41;22.07;;;5.13;;
7485;SDS011;3784;54.098;9.998;2023-02-03T04:52:08;16.40;;;3.83;;
7485;SDS011;3784;54.098;9.998;2023-02-03T04:54:35;21.10;;;5.40;;
7485;SDS011;3784;54.098;9.998;2023-02-03T04:57:01;23.37;;;4.70;;
7485;SDS011;3784;54.098;9.998;2023-02-03T04:59:28;17.73;;;4.33;;
7485;SDS011;3784;54.098;9.998;2023-02-03T05:01:54;20.87;;;4.50;;
7485;SDS011;3784;54.098;9.998;2023-02-03T05:04:21;24.37;;;5.17;;
7485;SDS011;3784;54.098;9.998;2023-02-03T05:06:47;18.10;;;4.00;;
7485;SDS011;3784;54.098;9.998;2023-02-03T05:09:14;13.40;;;3.27;;
7485;SDS011;3784;54.098;9.998;2023-02-03T05:11:41;24.53;;;4.90;;
7485;SDS011;3784;54.098;9.998;2023-02-03T05:14:07;24.60;;;5.13;;
7485;SDS011;3784;54.098;9.998;2023-02-03T05:16:34;22.30;;;5.13;;
7485;SDS011;3784;54.098;9.998;2023-02-03T05:19:00;25.57;;;5.00;;
7485;SDS011;3784;54.098;9.998;2023-02-03T05:21:27;19.13;;;4.67;;
7485;SDS011;3784;54.098;9.998;2023-02-03T05:23:53;18.53;;;4.40;;
7485;SDS011;3784;54.098;9.998;2023-02-03T05:26:20;24.70;;;5.27;;
7485;SDS011;3784;54.098;9.998;2023-02-03T05:28:46;22.90;;;5.37;;
7485;SDS011;3784;54.098;9.998;2023-02-03T05:31:13;19.77;;;5.03;;
7485;SDS011;3784;54.098;9.998;2023-02-03T05:33:39;20.97;;;5.33;;
7485;SDS011;3784;54.098;9.998;2023-02-03T05:36:06;21.23;;;4.67;;
7485;SDS011;3784;54.098;9.998;2023-02-03T05:38:33;22.13;;;4.83;;
7485;SDS011;3784;54.098;9.998;2023-02-03T05:40:59;19.27;;;5.07;;
7485;SDS011;3784;54.098;9.998;2023-02-03T05:43:44;22.97;;;4.90;;
7485;SDS011;3784;54.098;9.998;2023-02-03T05:46:11;19.60;;;4.57;;
7485;SDS011;3784;54.098;9.998;2023-02-03T05:48:37;13.90;;;4.20;;
7485;SDS011;3784;54.098;9.998;2023-02-03T05:51:04;21.07;;;4.70;;
7485;SDS011;3784;54.098;9.998;2023-02-03T05:53:30;15.60;;;4.47;;
7485;SDS011;3784;54.098;9.998;2023-02-03T05:55:57;21.27;;;4.80;;
7485;SDS011;3784;54.098;9.998;2023-02-03T05:58:23;17.07;;;4.07;;
7485;SDS011;3784;54.098;9.998;2023-02-03T06:00:50;22.43;;;5.20;;
7485;SDS011;3784;54.098;9.998;2023-02-03T06:03:17;16.60;;;4.07;;
7485;SDS011;3784;54.098;9.998;2023-02-03T06:05:43;22.83;;;5.23;;
7485;SDS011;3784;54.098;9.998;2023-02-03T06:08:10;24.57;;;6.17;;
7485;SDS011;3784;54.098;9.998;2023-02-03T06:10:36;22.20;;;5.17;;
7485;SDS011;3784;54.098;9.998;2023-02-03T06:13:10;21.57;;;5.77;;
7485;SDS011;3784;54.098;9.998;2023-02-03T06:15:38;23.43;;;5.87;;
7485;SDS011;3784;54.098;9.998;2023-02-03T06:18:05;24.43;;;5.57;;
7485;SDS011;3784;54.098;9.998;2023-02-03T06:20:32;29.27;;;6.90;;
7485;SDS011;3784;54.098;9.998;2023-02-03T06:22:58;28.20;;;6.10;;
7485;SDS011;3784;54.098;9.998;2023-02-03T06:25:25;18.57;;;5.50;;
7485;SDS011;3784;54.098;9.998;2023-02-03T06:27:52;25.77;;;6.13;;
7485;SDS011;3784;54.098;9.998;2023-02-03T06:30:18;27.03;;;5.83;;
7485;SDS011;3784;54.098;9.998;2023-02-03T06:32:46;25.60;;;6.00;;
7485;SDS011;3784;54.098;9.998;2023-02-03T06:35:13;29.00;;;6.43;;
7485;SDS011;3784;54.098;9.998;2023-02-03T06:37:40;24.73;;;5.23;;
7485;SDS011;3784;54.098;9.998;2023-02-03T06:40:06;22.60;;;4.90;;
7485;SDS011;3784;54.098;9.998;2023-02-03T06:42:33;27.87;;;6.47;;
7485;SDS011;3784;54.098;9.998;2023-02-03T06:45:00;21.03;;;5.60;;
7485;SDS011;3784;54.098;9.998;2023-02-03T06:47:26;24.07;;;5.17;;
7485;SDS011;3784;54.098;9.998;2023-02-03T06:49:53;22.20;;;5.03;;
7485;SDS011;3784;54.098;9.998;2023-02-03T06:52:19;22.07;;;5.37;;
7485;SDS011;3784;54.098;9.998;2023-02-03T06:54:46;27.70;;;5.47;;
7485;SDS011;3784;54.098;9.998;2023-02-03T06:57:12;21.90;;;5.10;;
7485;SDS011;3784;54.098;9.998;2023-02-03T06:59:39;25.37;;;5.00;;
7485;SDS011;3784;54.098;9.998;2023-02-03T07:02:05;18.87;;;4.67;;
7485;SDS011;3784;54.098;9.998;2023-02-03T07:04:32;13.10;;;3.87;;
7485;SDS011;3784;54.098;9.998;2023-02-03T07:06:58;14.17;;;4.50;;
7485;SDS011;3784;54.098;9.998;2023-02-03T07:09:25;14.87;;;4.00;;
7485;SDS011;3784;54.098;9.998;2023-02-03T07:11:51;11.20;;;3.60;;
7485;SDS011;3784;54.098;9.998;2023-02-03T07:14:18;14.80;;;2.90;;
7485;SDS011;3784;54.098;9.998;2023-02-03T07:16:44;13.73;;;3.43;;
7485;SDS011;3784;54.098;9.998;2023-02-03T07:19:11;10.57;;;2.97;;
7485;SDS011;3784;54.098;9.998;2023-02-03T07:21:37;15.27;;;4.20;;
7485;SDS011;3784;54.098;9.998;2023-02-03T07:24:04;16.60;;;4.57;;
7485;SDS011;3784;54.098;9.998;2023-02-03T07:26:30;18.23;;;4.77;;
7485;SDS011;3784;54.098;9.998;2023-02-03T07:28:57;23.13;;;4.30;;
7485;SDS011;3784;54.098;9.998;2023-02-03T07:31:25;17.23;;;4.17;;
7485;SDS011;3784;54.098;9.998;2023-02-03T07:33:52;18.07;;;4.00;;
7485;SDS011;3784;54.098;9.998;2023-02-03T07:36:19;22.17;;;4.60;;
7485;SDS011;3784;54.098;9.998;2023-02-03T07:38:45;17.03;;;5.27;;
7485;SDS011;3784;54.098;9.998;2023-02-03T07:41:12;13.43;;;4.00;;
7485;SDS011;3784;54.098;9.998;2023-02-03T07:43:38;19.30;;;6.20;;
7485;SDS011;3784;54.098;9.998;2023-02-03T07:46:05;20.13;;;4.87;;
7485;SDS011;3784;54.098;9.998;2023-02-03T07:48:31;19.57;;;5.43;;
7485;SDS011;3784;54.098;9.998;2023-02-03T07:50:58;24.00;;;5.80;;
7485;SDS011;3784;54.098;9.998;2023-02-03T07:53:24;24.83;;;5.87;;
7485;SDS011;3784;54.098;9.998;2023-02-03T07:55:51;24.87;;;5.80;;
7485;SDS011;3784;54.098;9.998;2023-02-03T07:58:18;25.43;;;6.03;;
7485;SDS011;3784;54.098;9.998;2023-02-03T08:00:44;22.97;;;5.73;;
7485;SDS011;3784;54.098;9.998;2023-02-03T08:03:11;21.90;;;5.43;;
7485;SDS011;3784;54.098;9.998;2023-02-03T08:05:37;24.80;;;5.77;;
7485;SDS011;3784;54.098;9.998;2023-02-03T08:08:04;31.53;;;6.97;;
7485;SDS011;3784;54.098;9.998;2023-02-03T08:10:30;24.43;;;6.37;;
7485;SDS011;3784;54.098;9.998;2023-02-03T08:12:57;16.30;;;4.33;;
7485;SDS011;3784;54.098;9.998;2023-02-03T08:15:23;24.40;;;5.73;;
7485;SDS011;3784;54.098;9.998;2023-02-03T08:17:51;28.07;;;6.80;;
7485;SDS011;3784;54.098;9.998;2023-02-03T08:20:17;22.13;;;6.17;;
7485;SDS011;3784;54.098;9.998;2023-02-03T08:22:44;28.67;;;6.67;;
7485;SDS011;3784;54.098;9.998;2023-02-03T08:25:11;21.67;;;5.93;;
7485;SDS011;3784;54.098;9.998;2023-02-03T08:27:38;27.80;;;6.70;;
7485;SDS011;3784;54.098;9.998;2023-02-03T08:30:06;22.63;;;6.40;;
7485;SDS011;3784;54.098;9.998;2023-02-03T08:32:34;33.83;;;8.17;;
7485;SDS011;3784;54.098;9.998;2023-02-03T08:35:00;35.77;;;8.43;;
7485;SDS011;3784;54.098;9.998;2023-02-03T08:37:27;25.87;;;6.90;;
7485;SDS011;3784;54.098;9.998;2023-02-03T08:39:57;27.53;;;6.77;;
7485;SDS011;3784;54.098;9.998;2023-02-03T08:42:23;36.47;;;8.60;;
7485;SDS011;3784;54.098;9.998;2023-02-03T08:44:50;37.30;;;7.83;;
7485;SDS011;3784;54.098;9.998;2023-02-03T08:47:17;36.93;;;8.50;;
7485;SDS011;3784;54.098;9.998;2023-02-03T08:49:43;30.10;;;7.27;;
7485;SDS011;3784;54.098;9.998;2023-02-03T08:52:10;37.80;;;7.30;;
7485;SDS011;3784;54.098;9.998;2023-02-03T08:54:38;40.50;;;9.70;;
7485;SDS011;3784;54.098;9.998;2023-02-03T08:57:05;27.93;;;6.80;;
7485;SDS011;3784;54.098;9.998;2023-02-03T08:59:32;45.67;;;8.97;;
7485;SDS011;3784;54.098;9.998;2023-02-03T09:02:05;47.50;;;10.70;;
7485;SDS011;3784;54.098;9.998;2023-02-03T09:04:32;37.57;;;9.63;;
7485;SDS011;3784;54.098;9.998;2023-02-03T09:06:59;39.50;;;9.70;;
7485;SDS011;3784;54.098;9.998;2023-02-03T09:09:27;39.03;;;9.63;;
7485;SDS011;3784;54.098;9.998;2023-02-03T09:11:56;35.77;;;8.07;;
7485;SDS011;3784;54.098;9.998;2023-02-03T09:14:28;34.20;;;8.77;;
7485;SDS011;3784;54.098;9.998;2023-02-03T09:16:54;37.70;;;9.30;;
7485;SDS011;3784;54.098;9.998;2023-02-03T09:19:21;39.13;;;9.20;;
7485;SDS011;3784;54.098;9.998;2023-02-03T09:21:48;44.77;;;10.50;;
7485;SDS011;3784;54.098;9.998;2023-02-03T09:24:15;42.10;;;10.00;;
7485;SDS011;3784;54.098;9.998;2023-02-03T09:26:42;34.00;;;8.03;;
7485;SDS011;3784;54.098;9.998;2023-02-03T09:29:09;42.90;;;10.73;;
7485;SDS011;3784;54.098;9.998;2023-02-03T09:31:36;43.50;;;11.37;;
7485;SDS011;3784;54.098;9.998;2023-02-03T09:34:03;46.57;;;10.37;;
7485;SDS011;3784;54.098;9.998;2023-02-03T09:36:29;27.40;;;7.40;;
7485;SDS011;3784;54.098;9.998;2023-02-03T09:38:56;38.80;;;10.07;;
7485;SDS011;3784;54.098;9.998;2023-02-03T09:44:14;37.43;;;8.80;;
7485;SDS011;3784;54.098;9.998;2023-02-03T09:46:59;40.23;;;9.10;;
7485;SDS011;3784;54.098;9.998;2023-02-03T09:49:28;37.17;;;9.03;;
7485;SDS011;3784;54.098;9.998;2023-02-03T09:52:04;37.37;;;9.07;;
7485;SDS011;3784;54.098;9.998;2023-02-03T09:57:13;30.50;;;8.07;;
7485;SDS011;3784;54.098;9.998;2023-02-03T09:59:43;39.70;;;9.90;;
7485;SDS011;3784;54.098;9.998;2023-02-03T10:04:57;31.80;;;8.77;;
7485;SDS011;3784;54.098;9.998;2023-02-03T10:07:28;29.57;;;8.27;;
7485;SDS011;3784;54.098;9.998;2023-02-03T10:10:14;23.77;;;6.67;;
7485;SDS011;3784;54.098;9.998;2023-02-03T10:18:01;34.80;;;8.53;;
7485;SDS011;3784;54.098;9.998;2023-02-03T10:20:33;39.90;;;8.10;;
7485;SDS011;3784;54.098;9.998;2023-02-03T10:23:04;39.70;;;9.77;;
7485;SDS011;3784;54.098;9.998;2023-02-03T10:28:04;29.60;;;8.47;;
7485;SDS011;3784;54.098;9.998;2023-02-03T10:30:38;42.73;;;9.63;;
7485;SDS011;3784;54.098;9.998;2023-02-03T10:33:12;33.70;;;7.87;;
7485;SDS011;3784;54.098;9.998;2023-02-03T10:38:25;36.20;;;9.67;;
7485;SDS011;3784;54.098;9.998;2023-02-03T10:40:59;45.27;;;9.37;;
7485;SDS011;3784;54.098;9.998;2023-02-03T10:43:26;30.93;;;7.83;;
7485;SDS011;3784;54.098;9.998;2023-02-03T10:46:46;38.53;;;8.47;;
7485;SDS011;3784;54.098;9.998;2023-02-03T10:49:05;33.70;;;8.27;;
7485;SDS011;3784;54.098;9.998;2023-02-03T10:51:36;28.30;;;7.17;;
7485;SDS011;3784;54.098;9.998;2023-02-03T10:54:21;31.40;;;7.97;;
7485;SDS011;3784;54.098;9.998;2023-02-03T10:56:52;35.77;;;8.90;;
7485;SDS011;3784;54.098;9.998;2023-02-03T10:59:26;29.83;;;7.23;;
7485;SDS011;3784;54.098;9.998;2023-02-03T11:02:05;29.83;;;8.13;;
7485;SDS011;3784;54.098;9.998;2023-02-03T11:04:39;27.37;;;6.30;;
7485;SDS011;3784;54.098;9.998;2023-02-03T11:07:06;23.00;;;6.07;;
7485;SDS011;3784;54.098;9.998;2023-02-03T11:09:49;28.83;;;7.50;;
7485;SDS011;3784;54.098;9.998;2023-02-03T11:12:17;34.83;;;8.73;;
7485;SDS011;3784;54.098;9.998;2023-02-03T11:17:22;38.10;;;6.97;;
7485;SDS011;3784;54.098;9.998;2023-02-03T11:19:52;33.03;;;7.50;;
7485;SDS011;3784;54.098;9.998;2023-02-03T11:24:53;33.23;;;8.20;;
7485;SDS011;3784;54.098;9.998;2023-02-03T11:27:20;30.13;;;6.80;;
7485;SDS011;3784;54.098;9.998;2023-02-03T11:29:50;30.00;;;8.00;;
7485;SDS011;3784;54.098;9.998;2023-02-03T11:35:03;32.20;;;8.07;;
7485;SDS011;3784;54.098;9.998;2023-02-03T11:37:41;32.40;;;7.97;;
7485;SDS011;3784;54.098;9.998;2023-02-03T11:42:37;26.87;;;7.30;;
7485;SDS011;3784;54.098;9.998;2023-02-03T11:45:13;30.63;;;6.93;;
7485;SDS011;3784;54.098;9.998;2023-02-03T11:47:47;31.37;;;8.37;;
7485;SDS011;3784;54.098;9.998;2023-02-03T11:56:00;34.20;;;7.77;;
7485;SDS011;3784;54.098;9.998;2023-02-03T12:04:19;26.90;;;7.73;;
7485;SDS011;3784;54.098;9.998;2023-02-03T12:12:43;26.70;;;7.50;;
7485;SDS011;3784;54.098;9.998;2023-02-03T12:15:34;26.60;;;6.97;;
7485;SDS011;3784;54.098;9.998;2023-02-03T12:18:21;26.27;;;7.53;;
7485;SDS011;3784;54.098;9.998;2023-02-03T12:24:13;33.27;;;7.33;;
7485;SDS011;3784;54.098;9.998;2023-02-03T12:26:49;29.60;;;7.03;;
7485;SDS011;3784;54.098;9.998;2023-02-03T12:29:24;28.03;;;7.47;;
7485;SDS011;3784;54.098;9.998;2023-02-03T12:34:28;20.33;;;6.03;;
7485;SDS011;3784;54.098;9.998;2023-02-03T12:37:09;34.83;;;7.43;;
7485;SDS011;3784;54.098;9.998;2023-02-03T12:39:42;26.67;;;6.73;;
7485;SDS011;3784;54.098;9.998;2023-02-03T12:42:23;24.77;;;7.30;;
7485;SDS011;3784;54.098;9.998;2023-02-03T12:45:36;31.00;;;8.13;;
7485;SDS011;3784;54.098;9.998;2023-02-03T12:50:33;26.70;;;7.37;;
7485;SDS011;3784;54.098;9.998;2023-02-03T12:53:13;31.40;;;7.90;;
7485;SDS011;3784;54.098;9.998;2023-02-03T12:56:04;21.67;;;5.73;;
7485;SDS011;3784;54.098;9.998;2023-02-03T12:58:37;25.67;;;7.33;;
7485;SDS011;3784;54.098;9.998;2023-02-03T13:06:32;19.93;;;5.77;;
7485;SDS011;3784;54.098;9.998;2023-02-03T13:11:46;25.57;;;6.67;;
7485;SDS011;3784;54.098;9.998;2023-02-03T13:14:40;29.17;;;6.70;;
7485;SDS011;3784;54.098;9.998;2023-02-03T13:17:12;39.33;;;7.87;;
7485;SDS011;3784;54.098;9.998;2023-02-03T13:19:48;21.23;;;6.17;;
7485;SDS011;3784;54.098;9.998;2023-02-03T13:22:20;30.77;;;8.27;;
7485;SDS011;3784;54.098;9.998;2023-02-03T13:24:51;26.37;;;7.00;;
7485;SDS011;3784;54.098;9.998;2023-02-03T13:27:35;33.43;;;7.37;;
7485;SDS011;3784;54.098;9.998;2023-02-03T13:38:12;30.10;;;6.77;;
7485;SDS011;3784;54.098;9.998;2023-02-03T13:41:16;25.57;;;7.13;;
7485;SDS011;3784;54.098;9.998;2023-02-03T13:43:49;31.70;;;8.20;;
7485;SDS011;3784;54.098;9.998;2023-02-03T13:46:26;28.33;;;7.30;;
7485;SDS011;3784;54.098;9.998;2023-02-03T13:48:58;29.03;;;6.67;;
7485;SDS011;3784;54.098;9.998;2023-02-03T13:51:26;30.70;;;7.70;;
7485;SDS011;3784;54.098;9.998;2023-02-03T13:54:00;33.53;;;8.90;;
7485;SDS011;3784;54.098;9.998;2023-02-03T13:56:28;35.57;;;8.67;;
7485;SDS011;3784;54.098;9.998;2023-02-03T14:01:45;33.27;;;8.77;;
7485;SDS011;3784;54.098;9.998;2023-02-03T14:14:44;29.37;;;7.83;;
7485;SDS011;3784;54.098;9.998;2023-02-03T14:19:59;29.23;;;7.00;;
7485;SDS011;3784;54.098;9.998;2023-02-03T14:22:26;39.60;;;9.30;;
7485;SDS011;3784;54.098;9.998;2023-02-03T14:24:54;38.40;;;9.30;;
7485;SDS011;3784;54.098;9.998;2023-02-03T14:27:23;19.73;;;6.37;;
7485;SDS011;3784;54.098;9.998;2023-02-03T14:30:05;26.93;;;7.37;;
7485;SDS011;3784;54.098;9.998;2023-02-03T14:32:47;37.80;;;7.10;;
7485;SDS011;3784;54.098;9.998;2023-02-03T14:35:22;35.47;;;9.17;;
7485;SDS011;3784;54.098;9.998;2023-02-03T14:37:51;35.87;;;8.90;;
7485;SDS011;3784;54.098;9.998;2023-02-03T14:43:30;28.27;;;7.83;;
7485;SDS011;3784;54.098;9.998;2023-02-03T15:03:13;26.97;;;7.30;;
7485;SDS011;3784;54.098;9.998;2023-02-03T15:05:46;34.37;;;8.60;;
7485;SDS011;3784;54.098;9.998;2023-02-03T15:11:23;30.07;;;8.13;;
7485;SDS011;3784;54.098;9.998;2023-02-03T15:13:54;36.13;;;7.87;;
7485;SDS011;3784;54.098;9.998;2023-02-03T15:16:22;39.23;;;8.30;;
7485;SDS011;3784;54.098;9.998;2023-02-03T15:19:33;38.63;;;8.83;;
7485;SDS011;3784;54.098;9.998;2023-02-03T15:21:41;41.47;;;7.63;;
7485;SDS011;3784;54.098;9.998;2023-02-03T15:24:11;22.27;;;7.00;;
7485;SDS011;3784;54.098;9.998;2023-02-03T15:26:53;39.27;;;8.87;;
7485;SDS011;3784;54.098;9.998;2023-02-03T15:29:38;26.67;;;8.33;;
7485;SDS011;3784;54.098;9.998;2023-02-03T15:32:12;35.60;;;8.30;;
7485;SDS011;3784;54.098;9.998;2023-02-03T15:34:44;38.80;;;9.70;;
7485;SDS011;3784;54.098;9.998;2023-02-03T15:37:15;26.63;;;7.20;;
7485;SDS011;3784;54.098;9.998;2023-02-03T15:42:36;32.83;;;8.33;;
7485;SDS011;3784;54.098;9.998;2023-02-03T15:45:13;41.53;;;9.97;;
7485;SDS011;3784;54.098;9.998;2023-02-03T15:47:54;45.10;;;9.20;;
7485;SDS011;3784;54.098;9.998;2023-02-03T15:50:28;40.63;;;10.23;;
7485;SDS011;3784;54.098;9.998;2023-02-03T15:52:57;44.53;;;8.93;;
7485;SDS011;3784;54.098;9.998;2023-02-03T15:55:35;41.53;;;9.37;;
7485;SDS011;3784;54.098;9.998;2023-02-03T15:58:03;31.80;;;8.67;;
7485;SDS011;3784;54.098;9.998;2023-02-03T16:00:37;39.63;;;9.20;;
7485;SDS011;3784;54.098;9.998;2023-02-03T16:03:06;37.80;;;9.60;;
7485;SDS011;3784;54.098;9.998;2023-02-03T16:05:41;38.60;;;7.50;;
7485;SDS011;3784;54.098;9.998;2023-02-03T16:11:27;33.10;;;8.10;;
7485;SDS011;3784;54.098;9.998;2023-02-03T16:14:04;36.13;;;9.10;;
7485;SDS011;3784;54.098;9.998;2023-02-03T16:16:42;41.67;;;9.60;;
7485;SDS011;3784;54.098;9.998;2023-02-03T16:19:29;21.90;;;6.97;;
7485;SDS011;3784;54.098;9.998;2023-02-03T16:22:03;26.30;;;7.87;;
7485;SDS011;3784;54.098;9.998;2023-02-03T16:30:19;20.87;;;6.27;;
7485;SDS011;3784;54.098;9.998;2023-02-03T16:35:52;36.23;;;7.43;;
7485;SDS011;3784;54.098;9.998;2023-02-03T16:38:43;28.67;;;7.33;;
7485;SDS011;3784;54.098;9.998;2023-02-03T16:41:28;29.00;;;7.50;;
7485;SDS011;3784;54.098;9.998;2023-02-03T16:44:15;30.60;;;7.87;;
7485;SDS011;3784;54.098;9.998;2023-02-03T16:47:00;27.23;;;6.90;;
7485;SDS011;3784;54.098;9.998;2023-02-03T16:49:45;36.87;;;8.73;;
7485;SDS011;3784;54.098;9.998;2023-02-03T16:52:30;35.57;;;9.03;;
7485;SDS011;3784;54.098;9.998;2023-02-03T16:54:57;37.27;;;7.83;;
7485;SDS011;3784;54.098;9.998;2023-02-03T16:57:24;40.40;;;9.00;;
7485;SDS011;3784;54.098;9.998;2023-02-03T16:59:50;20.77;;;5.40;;
7485;SDS011;3784;54.098;9.998;2023-02-03T17:02:16;36.97;;;8.30;;
7485;SDS011;3784;54.098;9.998;2023-02-03T17:04:43;34.43;;;8.13;;
7485;SDS011;3784;54.098;9.998;2023-02-03T17:07:09;30.70;;;7.37;;
7485;SDS011;3784;54.098;9.998;2023-02-03T17:09:36;31.77;;;9.00;;
7485;SDS011;3784;54.098;9.998;2023-02-03T17:12:02;40.73;;;10.07;;
7485;SDS011;3784;54.098;9.998;2023-02-03T17:14:29;29.20;;;8.77;;
7485;SDS011;3784;54.098;9.998;2023-02-03T17:16:56;32.13;;;8.13;;
7485;SDS011;3784;54.098;9.998;2023-02-03T17:19:23;31.63;;;8.07;;
7485;SDS011;3784;54.098;9.998;2023-02-03T17:21:50;20.37;;;5.53;;
7485;SDS011;3784;54.098;9.998;2023-02-03T17:24:17;21.47;;;5.50;;
7485;SDS011;3784;54.098;9.998;2023-02-03T17:26:44;27.73;;;6.67;;
7485;SDS011;3784;54.098;9.998;2023-02-03T17:29:11;26.17;;;6.33;;
7485;SDS011;3784;54.098;9.998;2023-02-03T17:31:37;27.80;;;7.17;;
7485;SDS011;3784;54.098;9.998;2023-02-03T17:34:04;18.20;;;4.93;;
7485;SDS011;3784;54.098;9.998;2023-02-03T17:36:30;25.87;;;6.97;;
7485;SDS011;3784;54.098;9.998;2023-02-03T17:38:58;24.63;;;6.23;;
7485;SDS011;3784;54.098;9.998;2023-02-03T17:41:42;29.60;;;7.50;;
7485;SDS011;3784;54.098;9.998;2023-02-03T17:44:26;21.80;;;5.60;;
7485;SDS011;3784;54.098;9.998;2023-02-03T17:47:10;25.07;;;5.83;;
7485;SDS011;3784;54.098;9.998;2023-02-03T17:49:54;20.97;;;5.43;;
7485;SDS011;3784;54.098;9.998;2023-02-03T17:52:38;17.10;;;4.90;;
7485;SDS011;3784;54.098;9.998;2023-02-03T17:55:22;15.97;;;4.40;;
7485;SDS011;3784;54.098;9.998;2023-02-03T17:57:48;16.47;;;4.73;;
7485;SDS011;3784;54.098;9.998;2023-02-03T18:00:15;20.00;;;4.83;;
7485;SDS011;3784;54.098;9.998;2023-02-03T18:02:42;19.53;;;4.67;;
7485;SDS011;3784;54.098;9.998;2023-02-03T18:05:09;25.13;;;6.00;;
7485;SDS011;3784;54.098;9.998;2023-02-03T18:07:36;16.97;;;4.60;;
7485;SDS011;3784;54.098;9.998;2023-02-03T18:10:02;13.33;;;4.03;;
7485;SDS011;3784;54.098;9.998;2023-02-03T18:12:29;13.47;;;3.90;;